Time;durP1;ratioP1;P1;durP2;ratioP2;P2;SDS_P1;SDS_P2;PMS_P1;PMS_P2;Temp;Humidity;BMP_temperature;BMP_pressure;BME280_temperature;BME280_humidity;BME280_pressure;Samples;Min_cycle;Max_cycle;Signal;HPM_P1;HPM_P2
2021/12/16 00:01:45;;;;;;;21.63;16.88;;;;;;;6.81;100.00;100978.56;5035313;28;20075;-79
2021/12/16 00:09:10;;;;;;;21.20;16.73;;;;;;;6.73;100.00;100968.28;5033059;28;20034;-79
2021/12/16 00:33:41;;;;;;;24.80;18.27;;;;;;;6.65;100.00;100955.41;5052069;28;20511;-79
2021/12/16 00:36:10;;;;;;;19.98;16.23;;;;;;;6.77;100.00;100974.31;5032795;28;20114;-79
2021/12/16 00:38:37;;;;;;;22.40;18.05;;;;;;;6.69;100.00;100956.25;5051723;28;20033;-79
2021/12/16 00:41:03;;;;;;;22.77;17.42;;;;;;;6.74;100.00;100970.00;5069031;28;20141;-80
2021/12/16 00:43:38;;;;;;;21.30;16.17;;;;;;;6.72;100.00;100967.44;5055453;28;20401;-79
2021/12/16 00:54:11;;;;;;;19.67;15.98;;;;;;;6.71;100.00;100957.09;5054621;28;20412;-79
2021/12/16 00:56:38;;;;;;;21.75;17.40;;;;;;;6.54;100.00;100936.56;5054265;28;20519;-79
2021/12/16 00:59:06;;;;;;;20.83;16.58;;;;;;;6.64;100.00;100947.69;5054528;28;20029;-80
2021/12/16 01:34:26;;;;;;;21.02;17.30;;;;;;;6.68;100.00;100954.53;5063585;28;20396;-79
2021/12/16 01:47:56;;;;;;;20.00;17.27;;;;;;;6.63;100.00;100944.22;5050960;28;20083;-79
2021/12/16 01:50:29;;;;;;;21.67;17.17;;;;;;;6.54;100.00;100933.97;5051271;28;20029;-80
2021/12/16 01:55:56;;;;;;;23.02;19.42;;;;;;;6.61;100.00;100950.28;5050898;28;20078;-79
2021/12/16 01:58:24;;;;;;;23.92;18.42;;;;;;;6.52;100.00;100942.59;5051129;28;20029;-80
2021/12/16 02:01:31;;;;;;;22.42;18.75;;;;;;;6.60;100.00;100949.44;5050785;28;20539;-80
2021/12/16 02:03:53;;;;;;;21.30;18.42;;;;;;;6.59;100.00;100950.31;5050217;28;20484;-79
2021/12/16 02:06:43;;;;;;;24.52;19.70;;;;;;;6.48;100.00;100931.41;5050719;28;20032;-79
2021/12/16 02:36:42;;;;;;;21.13;18.25;;;;;;;6.54;100.00;100944.31;5010666;28;20448;-79
2021/12/16 02:39:24;;;;;;;20.25;17.98;;;;;;;6.53;100.00;100946.91;5010547;28;20041;-79
2021/12/16 02:41:56;;;;;;;19.50;16.55;;;;;;;6.42;100.00;100928.91;5010158;28;20050;-79
2021/12/16 02:50:06;;;;;;;20.80;16.67;;;;;;;6.48;100.00;100954.72;5030372;28;20400;-79
2021/12/16 02:52:32;;;;;;;22.75;18.40;;;;;;;6.38;100.00;100929.81;5029838;28;20034;-80
2021/12/16 02:54:57;;;;;;;19.40;17.10;;;;;;;6.45;100.00;100931.47;5030451;28;20057;-80
2021/12/16 02:57:24;;;;;;;19.27;16.90;;;;;;;6.53;100.00;100946.91;5029834;28;20397;-79
2021/12/16 02:59:52;;;;;;;21.30;16.80;;;;;;;6.53;100.00;100944.31;5029769;28;20401;-80
2021/12/16 03:02:19;;;;;;;18.10;16.08;;;;;;;6.47;100.00;100940.06;5029983;28;20048;-80
2021/12/16 03:04:48;;;;;;;18.88;16.02;;;;;;;6.43;100.00;100931.47;5029913;28;20056;-80
2021/12/16 03:07:15;;;;;;;17.98;15.55;;;;;;;6.36;100.00;100916.00;5029818;28;20059;-80
2021/12/16 03:15:00;;;;;;;18.88;15.57;;;;;;;6.54;100.00;100930.53;5029453;28;20037;-79
2021/12/16 03:17:35;;;;;;;22.15;17.27;;;;;;;6.63;100.00;100949.41;5029573;28;20037;-79
2021/12/16 03:20:20;;;;;;;20.85;16.80;;;;;;;6.65;100.00;100949.38;5029824;28;20025;-79
2021/12/16 03:38:19;;;;;;;22.70;17.30;;;;;;;6.64;100.00;100964.06;5069284;28;20419;-80
2021/12/16 03:40:44;;;;;;;26.05;16.85;;;;;;;6.72;100.00;100977.78;5068741;28;20032;-79
2021/12/16 03:43:16;;;;;;;19.83;15.65;;;;;;;6.53;100.00;100955.56;5052457;28;20047;-80
2021/12/16 03:48:46;;;;;;;22.55;17.67;;;;;;;6.67;100.00;100971.81;5069183;28;20036;-79
2021/12/16 03:51:16;;;;;;;21.63;16.90;;;;;;;6.62;100.00;100968.41;5069187;28;20044;-79
2021/12/16 03:53:43;;;;;;;22.05;16.52;;;;;;;6.70;100.00;100989.91;5068957;28;20107;-80
2021/12/16 03:56:10;;;;;;;22.25;16.83;;;;;;;6.60;100.00;100970.13;5069149;28;20512;-79
2021/12/16 03:58:36;;;;;;;20.42;16.23;;;;;;;6.63;100.00;100975.28;5069121;28;20111;-79
2021/12/16 04:01:08;;;;;;;23.85;17.60;;;;;;;6.60;100.00;100966.69;5069053;28;20055;-80
2021/12/16 04:03:34;;;;;;;23.08;16.23;;;;;;;6.71;100.00;100977.81;5069017;28;20029;-79
2021/12/16 04:06:01;;;;;;;25.58;17.98;;;;;;;6.70;100.00;100974.38;5069028;28;20044;-80
2021/12/16 04:08:26;;;;;;;21.75;16.88;;;;;;;6.65;100.00;100977.84;5068944;28;20424;-79
2021/12/16 04:11:05;;;;;;;25.73;17.77;;;;;;;6.59;100.00;100977.94;5068806;28;20124;-80
2021/12/16 04:13:36;;;;;;;21.90;17.10;;;;;;;6.59;100.00;100970.16;5068876;28;20035;-80
2021/12/16 04:16:03;;;;;;;19.80;16.67;;;;;;;6.62;100.00;100977.91;5071600;28;20033;-79
2021/12/16 04:18:28;;;;;;;21.63;16.17;;;;;;;6.64;100.00;100976.16;5071697;28;20036;-80
2021/12/16 04:20:53;;;;;;;23.20;17.30;;;;;;;6.53;100.00;100962.44;5069919;28;20422;-79
2021/12/16 04:23:19;;;;;;;21.80;16.88;;;;;;;6.62;100.00;100972.75;5070063;28;20024;-79
2021/12/16 04:25:47;;;;;;;22.83;16.58;;;;;;;6.66;100.00;100966.66;5071048;28;20020;-79
2021/12/16 04:28:18;;;;;;;28.85;18.05;;;;;;;6.53;100.00;100955.56;5071439;28;20032;-79
2021/12/16 04:30:44;;;;;;;23.67;17.58;;;;;;;6.69;100.00;100984.72;5071199;28;20044;-80
2021/12/16 04:33:10;;;;;;;22.98;15.98;;;;;;;6.67;100.00;100981.31;5071370;28;20403;-79
2021/12/16 04:35:39;;;;;;;24.10;18.20;;;;;;;6.68;100.00;100970.94;5071054;28;20031;-79
2021/12/16 04:38:06;;;;;;;25.15;18.55;;;;;;;6.69;100.00;100975.22;5071407;28;20430;-79
2021/12/16 04:40:31;;;;;;;23.90;17.08;;;;;;;6.69;100.00;100971.78;5071119;28;20472;-79
2021/12/16 04:43:01;;;;;;;24.67;16.77;;;;;;;6.68;100.00;100975.25;5070136;28;20035;-80
2021/12/16 04:45:29;;;;;;;20.90;16.58;;;;;;;6.64;100.00;100971.81;5071106;28;20025;-79
2021/12/16 04:47:54;;;;;;;24.60;16.30;;;;;;;6.59;100.00;100971.03;5074699;28;20055;-79
2021/12/16 04:50:20;;;;;;;23.77;17.13;;;;;;;6.53;100.00;100959.84;5074735;28;20033;-80
2021/12/16 04:52:46;;;;;;;23.70;16.98;;;;;;;6.50;100.00;100948.66;5074405;28;20041;-80
2021/12/16 04:55:13;;;;;;;22.63;15.73;;;;;;;6.57;100.00;100961.53;5074891;28;20035;-80
2021/12/16 04:57:40;;;;;;;21.55;16.35;;;;;;;6.44;100.00;100933.19;5074553;28;20032;-80
2021/12/16 05:00:09;;;;;;;23.88;16.88;;;;;;;6.66;100.00;100964.91;5074623;28;20090;-80
2021/12/16 05:02:37;;;;;;;24.75;16.70;;;;;;;6.63;100.00;100966.69;5074107;28;20063;-80
2021/12/16 05:05:03;;;;;;;24.27;17.13;;;;;;;6.69;100.00;100983.00;5074608;28;20020;-79
2021/12/16 05:07:29;;;;;;;22.27;16.88;;;;;;;6.67;100.00;100979.56;5074497;28;20028;-80
2021/12/16 05:12:25;;;;;;;22.05;17.20;;;;;;;6.68;100.00;100972.66;5074669;28;20067;-80
2021/12/16 05:14:52;;;;;;;23.75;18.58;;;;;;;6.72;100.00;100977.78;5074235;28;20032;-79
2021/12/16 05:17:28;;;;;;;25.15;18.05;;;;;;;6.62;100.00;100952.88;5072876;28;20031;-79
2021/12/16 05:19:55;;;;;;;22.88;16.58;;;;;;;6.76;100.00;100978.63;5073943;28;20063;-80
2021/12/16 05:25:14;;;;;;;24.98;18.38;;;;;;;6.70;100.00;100964.03;5074192;28;20031;-79
2021/12/16 05:27:39;;;;;;;25.85;17.92;;;;;;;6.67;100.00;100958.88;5073816;28;20032;-79
2021/12/16 05:30:08;;;;;;;26.92;18.42;;;;;;;6.61;100.00;100947.69;5074312;28;20032;-79
2021/12/16 05:32:34;;;;;;;23.70;17.50;;;;;;;6.66;100.00;100951.97;5073761;28;20447;-79
2021/12/16 05:35:00;;;;;;;24.70;18.52;;;;;;;6.63;100.00;100956.31;5071264;28;20107;-79
2021/12/16 05:37:25;;;;;;;29.33;19.48;;;;;;;6.53;100.00;100945.22;5054283;28;20430;-79
2021/12/16 05:39:52;;;;;;;24.40;18.00;;;;;;;6.65;100.00;100963.19;5053655;28;20108;-79
2021/12/16 05:42:17;;;;;;;28.10;19.40;;;;;;;6.50;100.00;100940.91;5053768;28;20029;-79
2021/12/16 05:44:43;;;;;;;23.00;18.38;;;;;;;6.69;100.00;100969.19;5034029;28;20041;-79
2021/12/16 05:47:08;;;;;;;26.45;18.13;;;;;;;6.54;100.00;100946.06;5050949;28;20148;-79
2021/12/16 05:49:37;;;;;;;24.50;17.30;;;;;;;6.70;100.00;100976.97;5050829;28;20033;-79
2021/12/16 05:52:23;;;;;;;23.75;17.77;;;;;;;6.63;100.00;100961.50;5051108;28;20036;-79
2021/12/16 05:54:50;;;;;;;26.13;19.13;;;;;;;6.55;100.00;100946.03;5033988;28;20160;-79
2021/12/16 05:57:16;;;;;;;26.20;19.73;;;;;;;6.67;100.00;100973.53;5049696;28;20036;-79
2021/12/16 05:59:41;;;;;;;24.75;18.45;;;;;;;6.56;100.00;100952.91;5050880;28;20052;-80
2021/12/16 06:02:09;;;;;;;24.73;19.48;;;;;;;6.66;100.00;100967.50;5051261;28;20519;-80
2021/12/16 06:04:35;;;;;;;25.67;19.42;;;;;;;6.70;100.00;100976.97;5033984;28;20044;-80
2021/12/16 06:07:01;;;;;;;26.65;19.90;;;;;;;6.69;100.00;100967.47;5048056;28;20049;-79
2021/12/16 06:09:28;;;;;;;27.80;19.60;;;;;;;6.67;100.00;100960.59;5050746;28;20061;-79
2021/12/16 06:11:54;;;;;;;24.38;18.45;;;;;;;6.59;100.00;100954.63;5050343;28;20029;-79
2021/12/16 06:14:28;;;;;;;25.25;18.83;;;;;;;6.66;100.00;100961.47;5050670;28;20366;-80
2021/12/16 06:28:08;;;;;;;26.98;19.70;;;;;;;6.57;100.00;100953.78;5050663;28;20531;-84
2021/12/16 06:30:41;;;;;;;26.27;18.85;;;;;;;6.66;100.00;100972.69;5050248;28;20029;-86
2021/12/16 06:33:10;;;;;;;28.00;19.77;;;;;;;6.67;100.00;100973.53;5048442;28;20041;-86
2021/12/16 06:35:36;;;;;;;28.50;19.77;;;;;;;6.61;100.00;100965.81;5049821;28;20040;-83
2021/12/16 06:38:03;;;;;;;26.55;20.15;;;;;;;6.66;100.00;100975.28;5016847;28;20130;-83
2021/12/16 06:40:33;;;;;;;28.20;19.52;;;;;;;6.55;100.00;100955.53;5050065;28;20044;-83
2021/12/16 06:43:02;;;;;;;30.87;21.60;;;;;;;6.68;100.00;100980.44;5050267;28;20469;-84
2021/12/16 06:45:32;;;;;;;28.15;21.55;;;;;;;6.64;100.00;100981.31;5033388;28;20782;-84
2021/12/16 06:48:03;;;;;;;36.25;22.48;;;;;;;6.61;100.00;100963.22;5050002;28;20049;-85
2021/12/16 06:53:03;;;;;;;36.17;23.23;;;;;;;6.70;100.00;100984.72;5050024;28;20043;-84
2021/12/16 06:58:23;;;;;;;31.50;23.20;;;;;;;6.61;100.00;100968.41;5050026;28;20132;-85
2021/12/16 07:01:00;;;;;;;33.47;24.33;;;;;;;6.70;100.00;100982.16;5033119;28;20488;-84
2021/12/16 07:03:29;;;;;;;32.60;23.33;;;;;;;6.71;100.00;100988.19;5009743;28;20034;-85
2021/12/16 07:05:56;;;;;;;33.20;22.45;;;;;;;6.63;100.00;100971.84;5014117;28;20040;-84
2021/12/16 07:08:24;;;;;;;33.50;24.27;;;;;;;6.68;100.00;100977.84;5012869;28;20067;-84
2021/12/16 07:10:53;;;;;;;33.58;23.92;;;;;;;6.79;100.00;100994.16;5029659;28;20492;-80
2021/12/16 07:13:29;;;;;;;28.48;21.17;;;;;;;6.78;100.00;100986.38;5029788;28;20041;-79
2021/12/16 07:15:58;;;;;;;29.80;19.92;;;;;;;6.83;100.00;100995.84;5013105;28;20075;-79
2021/12/16 07:18:43;;;;;;;27.80;21.13;;;;;;;6.79;100.00;100983.78;5029177;28;20041;-79
2021/12/16 07:21:10;;;;;;;30.60;22.98;;;;;;;6.81;100.00;100992.38;5012981;28;20037;-79
2021/12/16 07:23:35;;;;;;;32.28;22.83;;;;;;;6.79;100.00;100986.38;5026746;28;20099;-79
2021/12/16 07:26:02;;;;;;;27.92;21.27;;;;;;;6.69;100.00;100962.28;5029440;28;20029;-79
2021/12/16 07:28:27;;;;;;;27.92;21.92;;;;;;;6.69;100.00;100959.69;5029517;28;20049;-79
2021/12/16 07:30:53;;;;;;;28.70;22.13;;;;;;;6.67;100.00;100964.03;5029205;28;20444;-79
2021/12/16 07:33:18;;;;;;;32.28;23.65;;;;;;;6.68;100.00;100957.97;5030822;28;20047;-79
2021/12/16 07:35:48;;;;;;;36.90;26.63;;;;;;;6.81;100.00;100988.94;5052352;28;20387;-80
2021/12/16 07:38:17;;;;;;;39.90;29.65;;;;;;;6.81;100.00;100991.53;5069244;28;20045;-79
2021/12/16 07:40:46;;;;;;;52.45;46.00;;;;;;;6.83;100.00;100985.47;5068891;28;20025;-79
2021/12/16 07:43:23;;;;;;;62.75;45.65;;;;;;;6.84;100.00;100988.91;5069147;28;20043;-80
2021/12/16 07:45:51;;;;;;;36.05;25.23;;;;;;;6.83;100.00;100976.84;5068984;28;20060;-79
2021/12/16 07:48:18;;;;;;;38.13;25.90;;;;;;;6.91;100.00;100980.19;5069179;28;20082;-79
2021/12/16 07:50:47;;;;;;;30.58;22.77;;;;;;;6.91;100.00;100982.78;5052679;28;20041;-79
2021/12/16 07:53:14;;;;;;;29.73;22.05;;;;;;;7.04;100.00;100991.28;5051743;28;20029;-79
2021/12/16 07:55:42;;;;;;;30.30;22.73;;;;;;;7.05;100.00;101003.38;5051448;28;20449;-79
2021/12/16 07:58:07;;;;;;;25.38;19.05;;;;;;;7.00;100.00;100991.34;5051505;28;20044;-80
2021/12/16 08:00:34;;;;;;;28.30;20.70;;;;;;;6.96;100.00;100981.88;5051487;28;20029;-79
2021/12/16 08:03:03;;;;;;;32.35;21.23;;;;;;;6.95;100.00;100982.75;5051569;28;20100;-80
2021/12/16 08:05:35;;;;;;;23.13;18.30;;;;;;;6.92;100.00;100981.94;5051590;28;20025;-79
2021/12/16 08:08:10;;;;;;;25.80;19.55;;;;;;;6.98;100.00;100992.22;5048085;28;20451;-79
2021/12/16 08:10:36;;;;;;;27.65;21.05;;;;;;;6.92;100.00;100982.78;5051115;28;20108;-79
2021/12/16 08:13:03;;;;;;;28.38;20.20;;;;;;;7.04;100.00;100999.06;5051723;28;20051;-79
2021/12/16 08:15:28;;;;;;;26.65;19.92;;;;;;;6.97;100.00;100988.78;5050182;28;20455;-79
2021/12/16 08:17:55;;;;;;;23.25;18.00;;;;;;;7.01;100.00;100994.78;5050100;28;20123;-79
2021/12/16 08:20:22;;;;;;;25.58;17.30;;;;;;;7.00;100.00;100999.09;5051088;28;20120;-80
2021/12/16 08:22:50;;;;;;;26.17;17.92;;;;;;;7.02;100.00;100991.31;5054792;28;20082;-80
2021/12/16 08:25:20;;;;;;;19.70;16.30;;;;;;;7.02;100.00;101006.00;5056329;28;20033;-80
2021/12/16 08:27:47;;;;;;;20.55;15.23;;;;;;;7.05;100.00;101011.16;5056116;28;20028;-80
2021/12/16 08:30:16;;;;;;;21.20;15.20;;;;;;;6.94;100.00;101003.47;5063844;28;21424;-79
2021/12/16 08:32:43;;;;;;;21.42;16.58;;;;;;;7.04;100.00;101012.88;5063023;28;20029;-79
2021/12/16 08:35:29;;;;;;;20.02;16.55;;;;;;;7.05;100.00;101029.28;5058436;28;20029;-79
2021/12/16 08:37:56;;;;;;;25.58;17.35;;;;;;;7.11;100.00;101039.56;5036232;28;20081;-79
2021/12/16 08:40:24;;;;;;;23.77;17.00;;;;;;;7.09;100.00;101036.16;5071996;28;20044;-79
2021/12/16 08:42:51;;;;;;;21.73;16.77;;;;;;;6.95;100.00;101023.31;5064729;28;20045;-79
2021/12/16 08:45:21;;;;;;;16.95;13.57;;;;;;;7.04;100.00;101040.50;5060940;28;20033;-79
2021/12/16 08:47:48;;;;;;;20.92;15.52;;;;;;;7.10;100.00;101048.22;5059295;28;20041;-80
2021/12/16 08:50:17;;;;;;;17.13;14.80;;;;;;;7.12;100.00;101046.47;5044680;28;20036;-79
2021/12/16 08:52:43;;;;;;;18.90;13.60;;;;;;;7.12;100.00;101037.00;5059687;28;20033;-79
2021/12/16 08:55:10;;;;;;;17.02;14.23;;;;;;;7.15;100.00;101043.84;5061047;28;20117;-79
2021/12/16 08:57:37;;;;;;;17.33;13.75;;;;;;;7.10;100.00;101024.91;5067974;28;20128;-79
2021/12/16 09:00:09;;;;;;;17.42;14.18;;;;;;;7.20;100.00;101053.28;5038739;28;20054;-79
2021/12/16 09:02:37;;;;;;;18.38;13.40;;;;;;;7.08;100.00;101031.81;5051673;28;20043;-79
2021/12/16 09:05:04;;;;;;;19.50;12.73;;;;;;;7.18;100.00;101049.00;5051940;28;20047;-79
2021/12/16 09:07:29;;;;;;;20.27;13.00;;;;;;;7.09;100.00;101043.94;5051687;28;20127;-79
2021/12/16 09:09:57;;;;;;;17.30;11.77;;;;;;;7.12;100.00;101054.25;5054164;28;20496;-79
2021/12/16 09:14:58;;;;;;;12.38;9.38;;;;;;;7.06;100.00;101052.56;5054374;28;20029;-79
2021/12/16 09:17:26;;;;;;;11.32;8.93;;;;;;;7.13;100.00;101064.59;5055237;28;20048;-79
2021/12/16 09:19:54;;;;;;;12.70;8.90;;;;;;;7.13;100.00;101062.00;5069524;28;20036;-79
2021/12/16 09:22:23;;;;;;;10.07;8.93;;;;;;;7.15;100.00;101068.03;5054231;28;20032;-79
2021/12/16 09:24:50;;;;;;;12.48;9.40;;;;;;;7.06;100.00;101038.78;5054217;28;20384;-79
2021/12/16 09:27:16;;;;;;;12.70;9.88;;;;;;;7.05;100.00;101037.91;5054003;28;20475;-79
2021/12/16 09:29:43;;;;;;;12.35;9.98;;;;;;;7.21;100.00;101043.81;5053806;28;20021;-79
2021/12/16 09:32:09;;;;;;;10.45;9.10;;;;;;;7.33;100.00;101060.94;5054007;28;20021;-79
2021/12/16 09:34:36;;;;;;;9.60;8.50;;;;;;;7.28;100.00;101054.94;5053895;28;20456;-79
2021/12/16 09:37:03;;;;;;;13.18;9.65;;;;;;;7.32;100.00;101052.31;5069449;28;20029;-79
2021/12/16 09:39:29;;;;;;;10.93;9.48;;;;;;;7.42;100.00;101061.72;5053955;28;20024;-79
2021/12/16 09:41:57;;;;;;;13.25;10.18;;;;;;;7.38;100.00;101072.13;5053869;28;20029;-79
2021/12/16 09:44:24;;;;;;;11.82;10.50;;;;;;;7.44;100.00;101074.66;5053749;28;20451;-79
2021/12/16 09:46:51;;;;;;;11.57;10.07;;;;;;;7.40;100.00;101070.38;5053545;28;20410;-79
2021/12/16 09:49:18;;;;;;;12.80;9.32;;;;;;;7.42;100.00;101085.03;5053652;28;20032;-79
2021/12/16 09:51:46;;;;;;;14.20;10.25;;;;;;;7.38;100.00;101072.13;5052201;28;20053;-79
2021/12/16 09:54:15;;;;;;;12.07;10.55;;;;;;;7.28;100.00;101045.44;5052239;28;20119;-80
2021/12/16 09:56:42;;;;;;;11.68;9.93;;;;;;;7.33;100.00;101058.34;5073006;28;20499;-80
2021/12/16 09:59:12;;;;;;;10.63;9.55;;;;;;;7.38;100.00;101077.31;5063696;28;20147;-79
2021/12/16 10:01:38;;;;;;;11.00;9.82;;;;;;;7.27;100.00;101055.84;5071998;28;20079;-79
2021/12/16 10:04:07;;;;;;;12.32;10.30;;;;;;;7.34;100.00;101067.84;5073423;28;20475;-79
2021/12/16 10:06:37;;;;;;;15.27;12.52;;;;;;;7.33;100.00;101060.94;5073121;28;20480;-79
2021/12/16 10:09:05;;;;;;;12.57;10.13;;;;;;;7.25;100.00;101056.72;5071866;28;20024;-79
2021/12/16 10:11:33;;;;;;;13.90;12.25;;;;;;;7.35;100.00;101072.16;5072923;28;20036;-79
2021/12/16 10:19:22;;;;;;;13.30;11.75;;;;;;;7.26;100.00;101039.44;5073380;28;20113;-79
2021/12/16 10:21:48;;;;;;;16.42;12.40;;;;;;;7.32;100.00;101052.31;5072780;28;20460;-79
2021/12/16 10:24:32;;;;;;;13.45;10.65;;;;;;;7.23;100.00;101047.22;5072850;28;20017;-80
2021/12/16 10:27:11;;;;;;;14.30;10.48;;;;;;;7.30;100.00;101067.03;5072798;28;20043;-80
2021/12/16 10:29:53;;;;;;;10.63;8.98;;;;;;;7.27;100.00;101055.84;5072635;28;20476;-79
2021/12/16 10:32:42;;;;;;;15.65;10.45;;;;;;;7.28;100.00;101058.41;5072693;28;20028;-80
2021/12/16 10:35:28;;;;;;;12.98;10.57;;;;;;;7.31;100.00;101054.91;5071587;28;20029;-79
2021/12/16 10:37:59;;;;;;;12.18;10.20;;;;;;;7.27;100.00;101042.88;5072437;28;20036;-79
2021/12/16 10:40:52;;;;;;;15.15;11.85;;;;;;;7.34;100.00;101052.31;5072665;28;20024;-79
2021/12/16 10:43:36;;;;;;;13.05;10.82;;;;;;;7.34;100.00;101054.91;5072207;28;20074;-79
2021/12/16 10:46:08;;;;;;;12.65;9.95;;;;;;;7.37;100.00;101052.25;5072433;28;20068;-79
2021/12/16 10:49:00;;;;;;;13.05;9.82;;;;;;;7.40;100.00;101044.44;5072339;28;20029;-80
2021/12/16 10:51:35;;;;;;;13.07;9.75;;;;;;;7.38;100.00;101043.63;5072589;28;20036;-79
2021/12/16 10:54:03;;;;;;;12.70;9.88;;;;;;;7.44;100.00;101061.69;5071206;28;20048;-79
2021/12/16 10:56:43;;;;;;;11.60;10.40;;;;;;;7.29;100.00;101034.22;5071086;28;20387;-79
2021/12/16 10:59:26;;;;;;;13.75;10.48;;;;;;;7.36;100.00;101063.50;5072353;28;20491;-80
2021/12/16 11:02:06;;;;;;;12.50;10.82;;;;;;;7.30;100.00;101061.00;5072147;28;20119;-79
2021/12/16 11:04:34;;;;;;;15.43;12.85;;;;;;;7.21;100.00;101038.63;5072101;28;20027;-80
2021/12/16 11:07:26;;;;;;;15.32;12.60;;;;;;;7.36;100.00;101081.66;5070992;28;20029;-80
2021/12/16 11:10:10;;;;;;;15.15;12.35;;;;;;;7.34;100.00;101081.66;5052736;28;20035;-80
2021/12/16 11:12:42;;;;;;;14.55;11.73;;;;;;;7.34;100.00;101088.59;5052613;28;20596;-80
2021/12/16 11:15:28;;;;;;;17.17;13.35;;;;;;;7.30;100.00;101086.91;5069538;28;20032;-80
2021/12/16 11:18:06;;;;;;;20.75;15.13;;;;;;;7.29;100.00;101096.41;5069441;28;20037;-79
2021/12/16 11:20:34;;;;;;;18.55;14.13;;;;;;;7.28;100.00;101093.81;5069451;28;20036;-79
2021/12/16 11:23:21;;;;;;;21.70;15.05;;;;;;;7.25;100.00;101084.38;5052739;28;20361;-80
2021/12/16 11:26:00;;;;;;;17.60;13.57;;;;;;;7.23;100.00;101063.63;5069328;28;20032;-79
2021/12/16 11:28:31;;;;;;;19.13;14.80;;;;;;;7.34;100.00;101079.09;5069445;28;20041;-80
2021/12/16 11:31:04;;;;;;;15.90;12.63;;;;;;;7.31;100.00;101073.91;5052684;28;20107;-80
2021/12/16 11:33:34;;;;;;;17.35;12.82;;;;;;;7.35;100.00;101073.00;5069361;28;20074;-79
2021/12/16 11:36:07;;;;;;;15.32;11.75;;;;;;;7.36;100.00;101063.50;5052749;28;20032;-80
2021/12/16 11:38:50;;;;;;;16.55;11.82;;;;;;;7.38;100.00;101054.00;5069175;28;20028;-79
2021/12/16 11:41:32;;;;;;;16.15;11.60;;;;;;;7.39;100.00;101048.78;5064315;28;20190;-86
2021/12/16 11:44:05;;;;;;;14.70;12.32;;;;;;;7.39;100.00;101056.56;5032677;28;20037;-83
2021/12/16 11:46:48;;;;;;;15.85;12.25;;;;;;;7.40;100.00;101062.59;5049346;28;20472;-83
2021/12/16 11:49:24;;;;;;;20.40;14.27;;;;;;;7.28;100.00;101040.25;5051617;28;20036;-83
2021/12/16 11:52:01;;;;;;;15.98;12.68;;;;;;;7.38;100.00;101061.78;5051630;28;20029;-82
2021/12/16 11:54:32;;;;;;;14.68;12.95;;;;;;;7.32;100.00;101059.22;5050567;28;20025;-83
2021/12/16 11:57:14;;;;;;;14.98;13.05;;;;;;;7.24;100.00;101041.16;5054292;28;20053;-82
2021/12/16 11:59:39;;;;;;;19.95;12.82;;;;;;;7.38;100.00;101069.53;5055633;28;20033;-83
2021/12/16 12:02:19;;;;;;;19.52;14.07;;;;;;;7.37;100.00;101067.81;5054474;28;20029;-80
2021/12/16 12:04:44;;;;;;;17.60;13.98;;;;;;;7.33;100.00;101048.84;5055958;28;20022;-81
2021/12/16 12:07:15;;;;;;;20.00;13.82;;;;;;;7.38;100.00;101057.44;5055486;28;20519;-80
2021/12/16 12:09:46;;;;;;;15.85;13.43;;;;;;;7.31;100.00;101041.97;5054128;28;20391;-79
2021/12/16 12:12:11;;;;;;;18.23;13.02;;;;;;;7.38;100.00;101041.03;5054188;28;20032;-80
2021/12/16 12:14:39;;;;;;;16.75;13.43;;;;;;;7.29;100.00;101036.81;5055522;28;20599;-79
2021/12/16 12:17:11;;;;;;;17.30;12.70;;;;;;;7.31;100.00;101040.22;5055739;28;20111;-79
2021/12/16 12:19:43;;;;;;;16.98;13.43;;;;;;;7.41;100.00;101041.81;5053988;28;20022;-80
2021/12/16 12:22:09;;;;;;;15.52;12.88;;;;;;;7.41;100.00;101049.59;5055428;28;20551;-80
2021/12/16 12:24:44;;;;;;;17.65;13.77;;;;;;;7.27;100.00;101020.41;5054927;28;20681;-79
2021/12/16 12:27:35;;;;;;;19.38;14.80;;;;;;;7.43;100.00;101049.59;5055508;28;20032;-79
2021/12/16 12:30:09;;;;;;;26.83;16.75;;;;;;;7.29;100.00;101028.16;5055010;28;20053;-81
2021/12/16 12:32:41;;;;;;;16.75;13.02;;;;;;;7.25;100.00;101028.22;5054900;28;20024;-81
2021/12/16 12:35:12;;;;;;;16.10;12.18;;;;;;;7.35;100.00;101046.25;5055003;28;20029;-81
2021/12/16 12:37:41;;;;;;;17.63;13.00;;;;;;;7.38;100.00;101041.88;5053786;28;20035;-81
2021/12/16 12:40:18;;;;;;;16.63;13.52;;;;;;;7.39;100.00;101046.19;5054936;28;20107;-81
2021/12/16 12:42:46;;;;;;;17.17;12.88;;;;;;;7.21;100.00;101020.47;5054543;28;20032;-78
2021/12/16 12:45:15;;;;;;;17.45;12.88;;;;;;;7.40;100.00;101057.41;5054689;28;20029;-78
2021/12/16 12:47:45;;;;;;;18.40;13.18;;;;;;;7.38;100.00;101062.63;5054587;28;20127;-78
2021/12/16 12:50:27;;;;;;;14.37;11.93;;;;;;;7.29;100.00;101046.28;5055122;28;20507;-84
2021/12/16 12:52:56;;;;;;;15.93;12.23;;;;;;;7.35;100.00;101051.44;5053054;28;20138;-81
2021/12/16 12:55:35;;;;;;;20.40;12.38;;;;;;;7.32;100.00;101048.84;5054800;28;20060;-81
2021/12/16 12:58:11;;;;;;;17.58;12.45;;;;;;;7.41;100.00;101062.56;5054609;28;20528;-81
2021/12/16 13:00:54;;;;;;;16.30;13.55;;;;;;;7.39;100.00;101068.66;5053638;28;20384;-81
2021/12/16 13:03:38;;;;;;;19.58;12.38;;;;;;;7.39;100.00;101073.84;5054640;28;20415;-81
2021/12/16 13:06:07;;;;;;;16.05;12.63;;;;;;;7.37;100.00;101079.03;5053966;28;20025;-78
2021/12/16 13:08:42;;;;;;;15.52;12.57;;;;;;;7.35;100.00;101080.78;5054091;28;20476;-78
2021/12/16 13:11:17;;;;;;;16.40;12.70;;;;;;;7.23;100.00;101063.63;5054488;28;20021;-78
2021/12/16 13:14:19;;;;;;;12.98;11.52;;;;;;;7.31;100.00;101084.28;5054430;28;20538;-78
2021/12/16 13:28:05;;;;;;;14.27;9.70;;;;;;;7.28;100.00;101089.50;5053838;28;20052;-78
2021/12/16 13:30:40;;;;;;;16.02;11.77;;;;;;;7.19;100.00;101087.84;5053862;28;20117;-78
2021/12/16 13:33:27;;;;;;;15.38;12.05;;;;;;;7.25;100.00;101093.00;5053918;28;20029;-78
2021/12/16 13:36:04;;;;;;;16.33;12.32;;;;;;;7.15;100.00;101082.72;5053737;28;20480;-78
2021/12/16 13:38:45;;;;;;;16.90;12.93;;;;;;;7.25;100.00;101105.94;5052555;28;20033;-78
2021/12/16 13:41:16;;;;;;;15.73;12.65;;;;;;;7.27;100.00;101115.44;5053807;28;20037;-80
2021/12/16 13:43:56;;;;;;;;;;;;;;;7.27;100.00;101113.69;5053768;28;20446;-79
2021/12/16 13:46:36;;;;;;;18.05;13.38;;;;;;;7.17;100.00;101097.38;5053650;28;19978;-81
2021/12/16 14:06:15;;;;;;;12.13;9.75;;;;;;;7.19;100.00;101087.84;5053477;28;20121;-78
2021/12/16 14:08:44;;;;;;;;;;;;;;;7.23;100.00;101092.13;5053229;28;20108;-80
2021/12/16 14:14:50;;;;;;;10.38;8.88;;;;;;;7.23;100.00;101094.72;5070412;28;20036;-79
2021/12/16 14:17:56;;;;;;;10.85;9.20;;;;;;;7.22;100.00;101098.19;5070013;28;20407;-78
2021/12/16 14:27:17;;;;;;;10.95;8.43;;;;;;;7.18;100.00;101117.25;5010505;28;20073;-79
2021/12/16 14:33:53;;;;;;;11.50;8.53;;;;;;;7.10;100.00;101121.63;4971608;28;20055;-79
2021/12/16 14:38:14;;;;;;;10.90;8.60;;;;;;;7.11;100.00;101135.44;4971247;28;20478;-78
2021/12/16 14:46:32;;;;;;;10.65;8.50;;;;;;;7.03;100.00;101139.81;4924355;29;19927;-79
2021/12/16 14:48:59;;;;;;;12.20;9.68;;;;;;;7.08;100.00;101154.47;4931318;29;20085;-78
2021/12/16 14:51:26;;;;;;;12.27;10.27;;;;;;;7.05;100.00;101158.81;4912667;29;20032;-79
2021/12/16 14:53:55;;;;;;;12.63;10.45;;;;;;;6.89;100.00;101148.56;4912064;29;20044;-78
2021/12/16 14:56:33;;;;;;;14.15;10.75;;;;;;;6.87;100.00;101155.50;4912560;29;20070;-79
2021/12/16 14:59:07;;;;;;;19.73;14.43;;;;;;;6.89;100.00;101171.03;4896574;29;20543;-79
2021/12/16 15:01:40;;;;;;;23.15;15.35;;;;;;;6.79;100.00;101157.28;4912336;29;20069;-78
2021/12/16 15:04:08;;;;;;;18.65;15.27;;;;;;;6.70;100.00;101150.44;4910004;29;20051;-79
2021/12/16 15:07:00;;;;;;;16.48;13.30;;;;;;;6.77;100.00;101177.13;4912134;29;20032;-79
2021/12/16 15:09:31;;;;;;;19.10;14.80;;;;;;;6.70;100.00;101181.50;4945400;28;20045;-79